createdAt,value
2022-08-03T00:02:08.152Z,96449.91
2022-08-03T00:04:54.848Z,96436.00
2022-08-03T00:07:41.111Z,96442.38
2022-08-03T00:10:26.988Z,96443.56
2022-08-03T00:13:13.181Z,96439.28
2022-08-03T00:15:58.476Z,96435.22
2022-08-03T00:18:43.791Z,96432.81
2022-08-03T00:21:29.356Z,96447.72
2022-08-03T00:24:14.879Z,96440.72
2022-08-03T00:27:00.046Z,96432.91
2022-08-03T00:30:00.002Z,96436.03
2022-08-03T00:32:45.755Z,96431.00
2022-08-03T00:35:50.067Z,96429.34
2022-08-03T00:38:36.549Z,96433.72
2022-08-03T00:41:22.137Z,96425.78
2022-08-03T00:44:07.337Z,96435.53
2022-08-03T00:46:52.691Z,96431.53
2022-08-03T00:49:39.656Z,96431.84
2022-08-03T00:52:26.084Z,96425.78
2022-08-03T00:55:12.632Z,96431.09
2022-08-03T00:57:59.414Z,96431.91
2022-08-03T01:00:44.776Z,96436.47
2022-08-03T01:03:30.035Z,96432.34
2022-08-03T01:06:22.634Z,96431.81
2022-08-03T01:09:26.927Z,96429.19
2022-08-03T01:12:46.371Z,96430.84
2022-08-03T01:15:39.160Z,96429.06
2022-08-03T01:18:38.921Z,96434.19
2022-08-03T01:21:32.935Z,96433.44
2022-08-03T01:24:37.995Z,96424.72
2022-08-03T01:27:31.066Z,96425.53
2022-08-03T01:30:16.678Z,96418.75
2022-08-03T01:33:10.106Z,96423.34
2022-08-03T01:36:08.026Z,96429.50
2022-08-03T01:39:02.159Z,96426.00
2022-08-03T01:42:00.949Z,96424.69
2022-08-03T01:44:48.808Z,96424.94
2022-08-03T01:47:34.637Z,96421.56
2022-08-03T01:50:22.926Z,96425.16
2022-08-03T01:53:09.320Z,96423.59
2022-08-03T01:55:55.755Z,96418.47
2022-08-03T01:58:41.626Z,96424.63
2022-08-03T02:01:27.592Z,96426.50
2022-08-03T02:04:35.421Z,96419.41
2022-08-03T02:07:20.877Z,96427.00
2022-08-03T02:10:06.995Z,96426.06
2022-08-03T02:12:53.662Z,96415.34
2022-08-03T02:15:39.227Z,96415.31
2022-08-03T02:18:25.946Z,96425.56
2022-08-03T02:21:12.044Z,96423.88
2022-08-03T02:24:17.447Z,96423.13
2022-08-03T02:27:05.531Z,96426.72
2022-08-03T02:30:01.425Z,96421.66
2022-08-03T02:32:52.158Z,96417.47
2022-08-03T02:35:38.172Z,96416.66
2022-08-03T02:38:27.423Z,96417.75
2022-08-03T02:41:15.560Z,96425.66
2022-08-03T02:44:06.527Z,96417.03
2022-08-03T02:46:56.057Z,96419.56
2022-08-03T02:49:51.362Z,96412.53
2022-08-03T02:52:37.427Z,96415.19
2022-08-03T02:55:23.861Z,96411.63
2022-08-03T02:58:10.429Z,96413.50
2022-08-03T03:00:56.282Z,96409.34
2022-08-03T03:03:44.841Z,96403.38
2022-08-03T03:06:31.668Z,96406.94
2022-08-03T03:09:17.647Z,96411.44
2022-08-03T03:12:04.381Z,96408.00
2022-08-03T03:14:49.544Z,96413.25
2022-08-03T03:17:35.214Z,96416.84
2022-08-03T03:20:29.419Z,96410.72
2022-08-03T03:23:16.081Z,96407.28
2022-08-03T03:26:02.234Z,96420.56
2022-08-03T03:28:47.861Z,96416.22
2022-08-03T03:31:32.940Z,96427.63
2022-08-03T03:34:18.833Z,96424.09
2022-08-03T03:37:05.242Z,96417.94
2022-08-03T03:39:50.984Z,96418.06
2022-08-03T03:42:36.318Z,96409.31
2022-08-03T03:45:21.941Z,96419.97
2022-08-03T03:48:07.675Z,96422.56
2022-08-03T03:50:53.296Z,96427.81
2022-08-03T03:53:38.770Z,96418.84
2022-08-03T03:56:24.572Z,96417.97
2022-08-03T03:59:10.130Z,96406.78
2022-08-03T04:01:58.935Z,96412.16
2022-08-03T04:05:03.311Z,96420.88
2022-08-03T04:08:25.976Z,96413.34
2022-08-03T04:11:15.372Z,96415.13
2022-08-03T04:14:06.990Z,96419.56
2022-08-03T04:16:55.956Z,96422.34
2022-08-03T04:19:44.353Z,96418.81
2022-08-03T04:22:32.567Z,96429.03
2022-08-03T04:25:19.495Z,96422.22
2022-08-03T04:28:08.018Z,96430.19
2022-08-03T04:31:10.396Z,96435.13
2022-08-03T04:33:55.648Z,96439.31
2022-08-03T04:36:50.401Z,96436.50
2022-08-03T04:39:36.199Z,96438.91
2022-08-03T04:42:22.615Z,96444.97
2022-08-03T04:45:13.365Z,96442.38
2022-08-03T04:47:59.311Z,96444.81
2022-08-03T04:50:48.225Z,96448.91
2022-08-03T04:53:34.340Z,96447.88
2022-08-03T04:56:19.578Z,96448.59
2022-08-03T04:59:04.762Z,96450.44
2022-08-03T05:01:50.480Z,96447.06
2022-08-03T05:04:38.647Z,96448.75
2022-08-03T05:07:25.089Z,96455.72
2022-08-03T05:10:16.186Z,96461.97
2022-08-03T05:13:01.869Z,96464.53
2022-08-03T05:15:47.417Z,96469.72
2022-08-03T05:18:32.631Z,96467.78
2022-08-03T05:21:17.894Z,96469.25
2022-08-03T05:24:03.520Z,96468.34
2022-08-03T05:26:48.759Z,96474.25
2022-08-03T05:29:33.897Z,96469.75
2022-08-03T05:32:19.672Z,96463.47
2022-08-03T05:35:55.881Z,96467.56
2022-08-03T05:38:10.544Z,96460.19
2022-08-03T05:41:22.765Z,96470.38
2022-08-03T05:44:02.819Z,96464.84
2022-08-03T05:46:48.080Z,96467.13
2022-08-03T05:49:33.675Z,96468.41
2022-08-03T05:52:18.658Z,96463.34
2022-08-03T05:55:05.360Z,96469.81
2022-08-03T05:57:50.576Z,96468.28
2022-08-03T06:00:35.745Z,96469.31
2022-08-03T06:03:21.965Z,96459.97
2022-08-03T06:06:09.133Z,96466.28
2022-08-03T06:08:54.395Z,96465.31
2022-08-03T06:11:40.395Z,96463.56
2022-08-03T06:14:25.724Z,96461.13
2022-08-03T06:17:11.390Z,96462.00
2022-08-03T06:19:58.210Z,96461.06
2022-08-03T06:22:50.891Z,96468.94
2022-08-03T06:25:36.765Z,96474.94
2022-08-03T06:28:52.263Z,96481.84
2022-08-03T06:31:33.158Z,96474.69
2022-08-03T06:34:33.976Z,96478.31
2022-08-03T06:37:20.676Z,96481.72
2022-08-03T06:40:06.168Z,96484.31
2022-08-03T06:42:51.446Z,96483.97
2022-08-03T06:45:36.629Z,96487.28
2022-08-03T06:48:21.830Z,96489.63
2022-08-03T06:51:07.226Z,96494.31
2022-08-03T06:53:52.563Z,96496.44
2022-08-03T06:56:38.253Z,96502.78
2022-08-03T07:00:10.592Z,96505.28
2022-08-03T07:02:30.325Z,96512.88
2022-08-03T07:05:16.599Z,96513.91
2022-08-03T07:08:03.199Z,96507.84
2022-08-03T07:10:48.739Z,96511.19
2022-08-03T07:13:34.050Z,96517.34
2022-08-03T07:16:19.264Z,96509.03
2022-08-03T07:19:04.936Z,96509.38
2022-08-03T07:21:50.066Z,96514.25
2022-08-03T07:24:38.624Z,96513.84
2022-08-03T07:27:27.024Z,96504.91
2022-08-03T07:30:14.423Z,96501.78
2022-08-03T07:33:26.040Z,96496.94
2022-08-03T07:36:11.325Z,96502.41
2022-08-03T07:38:58.130Z,96508.28
2022-08-03T07:41:43.488Z,96510.53
2022-08-03T07:44:28.731Z,96509.66
2022-08-03T07:47:22.344Z,96509.78
2022-08-03T07:50:08.936Z,96517.69
2022-08-03T07:52:56.072Z,96510.06
2022-08-03T07:55:41.445Z,96510.53
2022-08-03T07:58:27.661Z,96523.16
2022-08-03T08:01:15.036Z,96520.66
2022-08-03T08:04:06.360Z,96514.00
2022-08-03T08:06:52.129Z,96505.69
2022-08-03T08:09:37.401Z,96506.25
2022-08-03T08:13:25.435Z,96506.53
2022-08-03T08:16:10.931Z,96507.41
2022-08-03T08:18:56.107Z,96508.25
2022-08-03T08:21:53.927Z,96502.81
2022-08-03T08:24:49.101Z,96508.47
2022-08-03T08:28:29.647Z,96513.94
2022-08-03T08:30:49.088Z,96502.63
2022-08-03T08:34:03.157Z,96517.41
2022-08-03T08:36:41.660Z,96507.84
2022-08-03T08:39:26.728Z,96498.50
2022-08-03T08:42:12.197Z,96506.72
2022-08-03T08:44:57.407Z,96501.97
2022-08-03T08:47:50.928Z,96502.69
2022-08-03T08:50:37.885Z,96503.16
2022-08-03T08:53:27.620Z,96497.78
2022-08-03T08:56:17.207Z,96488.94
2022-08-03T08:59:03.554Z,96503.44
2022-08-03T09:01:50.421Z,96495.66
2022-08-03T09:04:39.020Z,96493.09
2022-08-03T09:07:24.379Z,96501.25
2022-08-03T09:10:13.290Z,96507.94
2022-08-03T09:12:58.888Z,96507.47
2022-08-03T09:16:00.743Z,96515.50
2022-08-03T09:18:39.968Z,96510.88
2022-08-03T09:21:30.144Z,96516.56
2022-08-03T09:24:04.406Z,96550.59
2022-08-03T09:26:32.530Z,96568.78
2022-08-03T09:29:14.030Z,96579.50
2022-08-03T09:31:46.468Z,96602.09
2022-08-03T09:34:16.489Z,96586.22
2022-08-03T09:36:50.531Z,96592.72
2022-08-03T09:39:19.096Z,96584.19
2022-08-03T09:42:06.773Z,96602.56
2022-08-03T09:44:36.026Z,96561.31
2022-08-03T09:47:04.021Z,96541.06
2022-08-03T09:49:31.977Z,96539.59
2022-08-03T09:52:32.566Z,96534.03
2022-08-03T09:54:53.188Z,96530.75
2022-08-03T09:57:22.055Z,96517.47
2022-08-03T09:59:48.963Z,96534.03
2022-08-03T10:02:26.183Z,96526.31
2022-08-03T10:04:54.284Z,96539.72
2022-08-03T10:07:22.428Z,96539.44
2022-08-03T10:09:58.122Z,96527.03
2022-08-03T10:12:45.237Z,96520.75
2022-08-03T10:16:24.017Z,96527.03
2022-08-03T10:17:59.407Z,96533.22
2022-08-03T10:20:27.461Z,96526.53
2022-08-03T10:22:54.431Z,96536.88
2022-08-03T10:25:21.169Z,96518.44
2022-08-03T10:28:04.282Z,96514.91
2022-08-03T10:30:33.364Z,96522.34
2022-08-03T10:33:05.845Z,96518.59
2022-08-03T10:35:55.045Z,96519.44
2022-08-03T10:38:26.918Z,96531.03
2022-08-03T10:40:58.931Z,96526.88
2022-08-03T10:43:28.785Z,96535.72
2022-08-03T10:45:55.950Z,96512.69
2022-08-03T10:48:22.839Z,96531.78
2022-08-03T10:50:50.865Z,96518.44
2022-08-03T10:53:34.695Z,96514.56
2022-08-03T10:56:26.608Z,96521.28
2022-08-03T10:59:08.812Z,96522.75
2022-08-03T11:02:00.561Z,96510.59
2022-08-03T11:04:30.000Z,96506.41
2022-08-03T11:07:19.070Z,96506.66
2022-08-03T11:09:51.722Z,96503.81
2022-08-03T11:12:22.512Z,96510.34
2022-08-03T11:15:03.308Z,96534.31
2022-08-03T11:17:32.408Z,96535.53
2022-08-03T11:19:59.076Z,96507.31
2022-08-03T11:22:50.831Z,96514.19
2022-08-03T11:25:54.895Z,96517.56
2022-08-03T11:28:28.846Z,96547.22
2022-08-03T11:30:55.617Z,96533.56
2022-08-03T11:33:32.196Z,96521.59
2022-08-03T11:36:01.620Z,96506.00
2022-08-03T11:38:30.026Z,96517.78
2022-08-03T11:40:57.511Z,96522.50
2022-08-03T11:43:31.485Z,96509.44
2022-08-03T11:46:08.184Z,96501.69
2022-08-03T11:48:37.133Z,96509.47
2022-08-03T11:51:06.094Z,96507.94
2022-08-03T11:53:33.032Z,96486.81
2022-08-03T11:56:12.978Z,96518.94
2022-08-03T11:59:14.247Z,96515.34
2022-08-03T12:01:35.699Z,96508.72
2022-08-03T12:04:05.250Z,96519.91
2022-08-03T12:06:52.741Z,96507.38
2022-08-03T12:09:21.167Z,96474.31
2022-08-03T12:11:59.734Z,96489.97
2022-08-03T12:14:50.786Z,96493.13
2022-08-03T12:17:15.289Z,96489.53
2022-08-03T12:19:45.235Z,96487.47
2022-08-03T12:22:12.083Z,96512.94
2022-08-03T12:24:43.830Z,96495.50
2022-08-03T12:27:10.483Z,96454.78
2022-08-03T12:29:37.486Z,96464.72
2022-08-03T12:32:04.424Z,96449.59
2022-08-03T12:34:47.796Z,96478.38
2022-08-03T12:37:19.073Z,96481.94
2022-08-03T12:40:02.365Z,96471.53
2022-08-03T12:42:35.587Z,96484.25
2022-08-03T12:45:22.482Z,96482.47
2022-08-03T12:47:58.013Z,96460.66
2022-08-03T12:50:35.064Z,96471.91
2022-08-03T12:53:04.578Z,96465.41
2022-08-03T12:55:56.370Z,96469.78
2022-08-03T12:58:34.365Z,96430.81
2022-08-03T13:01:09.434Z,96421.75
2022-08-03T13:04:02.666Z,96400.78
2022-08-03T13:06:30.614Z,96408.94
2022-08-03T13:09:07.742Z,96407.16
